Ribeiraozinho, Brazil
Current Conditions -  °F | °C
As of 7:00 PM on Sunday 21 Dec 2014 (Local Time) from SBBW Reporting Station
Thunderstorm Thunderstorm  
Wind Chill: 75°   Ceiling: 2000
Heat Index: 75°   Visibility: 6mi
Dew Point: 72°   Wind: 9mph
Humidity: 89%   Direction: 360°N
Pressure: 29.88"   Gusts: NA
Location:  16.5°S, 52.69°W
Report Text: SBBW 212200Z 36008KT 9999 TS VCSH BKN020 FEW025CB BKN090 24/22 Q1012
Loading
Personal Weather Stations






























Interactive Weather Map New forecast layout! Learn more

10-Day Weather Forecast

Advertisements
Track Severe Weather on mobile